Time;durP1;ratioP1;P1;durP2;ratioP2;P2;SDS_P1;SDS_P2;PMS_P1;PMS_P2;Temp;Humidity;BMP_temperature;BMP_pressure;BME280_temperature;BME280_humidity;BME280_pressure;Samples;Min_cycle;Max_cycle;Signal;HPM_P1;HPM_P2
2024/04/20 00:01:32;;;;;;;2.30;0.90;;;8.20;99.90;;;;;;5450520;26;20264;-72
2024/04/20 00:03:58;;;;;;;2.33;1.10;;;8.20;99.90;;;;;;5446082;26;20242;-72
2024/04/20 00:06:24;;;;;;;1.80;0.80;;;8.20;99.90;;;;;;5450138;26;20237;-72
2024/04/20 00:08:51;;;;;;;2.20;0.80;;;8.20;99.90;;;;;;5463873;26;20229;-72
2024/04/20 00:11:17;;;;;;;1.88;0.90;;;8.20;99.90;;;;;;5450257;26;20276;-72
2024/04/20 00:13:44;;;;;;;2.65;0.90;;;8.20;99.90;;;;;;5449788;26;20230;-72
2024/04/20 00:16:10;;;;;;;5.72;0.93;;;8.20;99.90;;;;;;5450085;26;20242;-72
2024/04/20 00:18:40;;;;;;;3.75;0.80;;;8.20;99.90;;;;;;5441066;26;20299;-72
2024/04/20 00:21:06;;;;;;;2.08;0.73;;;8.20;99.90;;;;;;5450320;26;20233;-72
2024/04/20 00:23:32;;;;;;;1.73;0.70;;;8.30;99.90;;;;;;5450062;26;20315;-72
2024/04/20 00:26:05;;;;;;;3.28;0.88;;;8.30;99.90;;;;;;5417917;26;20289;-72
2024/04/20 00:28:31;;;;;;;2.10;0.80;;;8.30;99.90;;;;;;5445641;26;20257;-72
2024/04/20 00:31:01;;;;;;;6.18;1.65;;;8.30;99.90;;;;;;5450439;26;20222;-72
2024/04/20 00:33:29;;;;;;;3.42;1.60;;;8.30;99.90;;;;;;5433430;26;20237;-72
2024/04/20 00:35:55;;;;;;;3.30;0.80;;;8.30;99.90;;;;;;5449517;26;20337;-72
2024/04/20 00:38:21;;;;;;;3.55;0.85;;;8.30;99.90;;;;;;5442911;26;20273;-72
2024/04/20 00:40:57;;;;;;;2.38;0.80;;;8.30;99.90;;;;;;5442679;26;20291;-72
2024/04/20 00:43:24;;;;;;;3.05;0.80;;;8.40;99.90;;;;;;5413483;26;20612;-72
2024/04/20 00:45:52;;;;;;;2.45;1.00;;;8.40;99.90;;;;;;5449099;26;20499;-72
2024/04/20 00:48:21;;;;;;;2.90;1.13;;;8.30;99.90;;;;;;5448653;26;20281;-72
2024/04/20 00:50:50;;;;;;;3.35;1.00;;;8.30;99.90;;;;;;5449539;26;20278;-72
2024/04/20 00:53:17;;;;;;;1.90;0.75;;;8.30;99.90;;;;;;5478473;26;20289;-72
2024/04/20 00:55:43;;;;;;;3.30;1.77;;;8.30;99.90;;;;;;5447085;26;20241;-72
2024/04/20 00:58:10;;;;;;;3.38;0.82;;;8.30;99.90;;;;;;5449461;26;20226;-73
2024/04/20 01:00:41;;;;;;;4.00;1.20;;;8.30;99.90;;;;;;5470713;26;20310;-72
2024/04/20 01:03:07;;;;;;;3.42;0.80;;;8.30;99.90;;;;;;5436724;26;20302;-72
2024/04/20 01:05:34;;;;;;;1.83;0.90;;;8.30;99.90;;;;;;5427180;26;20294;-72
2024/04/20 01:08:00;;;;;;;4.07;0.98;;;8.20;99.90;;;;;;5456000;26;20556;-72
2024/04/20 01:10:29;;;;;;;3.67;1.55;;;8.20;99.90;;;;;;5450187;26;20245;-72
2024/04/20 01:13:07;;;;;;;3.50;1.20;;;8.20;99.90;;;;;;5432666;26;20231;-72
2024/04/20 01:15:34;;;;;;;4.15;0.95;;;8.10;99.90;;;;;;5437182;26;20245;-72
2024/04/20 01:18:01;;;;;;;1.88;0.80;;;8.10;99.90;;;;;;5442301;26;20241;-72
2024/04/20 01:20:27;;;;;;;3.55;0.90;;;8.10;99.90;;;;;;5441840;26;20393;-72
2024/04/20 01:22:53;;;;;;;3.25;1.10;;;8.00;99.90;;;;;;5429970;26;20274;-71
2024/04/20 01:25:21;;;;;;;3.03;0.90;;;8.00;99.90;;;;;;5431735;26;20296;-72
2024/04/20 01:27:47;;;;;;;2.50;1.20;;;8.00;99.90;;;;;;5427484;26;20267;-72
2024/04/20 01:30:15;;;;;;;1.80;0.80;;;7.90;99.90;;;;;;5432329;26;20564;-72
2024/04/20 01:32:42;;;;;;;2.60;1.25;;;7.90;99.90;;;;;;5448344;26;20230;-72
2024/04/20 01:35:08;;;;;;;2.75;0.90;;;7.90;99.90;;;;;;5449942;26;20626;-73
2024/04/20 01:37:34;;;;;;;2.20;1.00;;;7.90;99.90;;;;;;5448762;26;20561;-72
2024/04/20 01:40:00;;;;;;;3.30;1.00;;;7.80;99.90;;;;;;5438900;26;20223;-73
2024/04/20 01:42:27;;;;;;;3.15;1.00;;;7.80;99.90;;;;;;5425035;26;20226;-72
2024/04/20 01:44:53;;;;;;;4.82;1.20;;;7.80;99.90;;;;;;5435661;26;20227;-72
2024/04/20 01:47:19;;;;;;;3.88;0.90;;;7.90;99.90;;;;;;5428164;26;20239;-72
2024/04/20 01:49:45;;;;;;;4.88;1.17;;;7.90;99.90;;;;;;5448772;26;20260;-72
2024/04/20 01:52:12;;;;;;;1.60;0.90;;;7.90;99.90;;;;;;5449791;26;20229;-72
2024/04/20 01:54:38;;;;;;;2.88;1.10;;;7.90;99.90;;;;;;5438205;26;20783;-72
2024/04/20 01:57:04;;;;;;;2.65;1.10;;;7.90;99.90;;;;;;5458738;26;20287;-72
2024/04/20 01:59:30;;;;;;;3.60;1.17;;;7.90;99.90;;;;;;5432046;26;20273;-73
2024/04/20 02:01:57;;;;;;;2.38;1.08;;;7.90;99.90;;;;;;5473347;26;20271;-72
2024/04/20 02:04:24;;;;;;;2.65;0.90;;;8.00;99.90;;;;;;5461864;26;20377;-72
2024/04/20 02:06:50;;;;;;;2.90;0.95;;;8.00;99.90;;;;;;5465909;26;20268;-72
2024/04/20 02:09:17;;;;;;;3.35;0.90;;;8.00;99.90;;;;;;5449857;26;20288;-73
2024/04/20 02:11:43;;;;;;;3.67;0.90;;;8.00;99.90;;;;;;5435868;26;20675;-72
2024/04/20 02:14:09;;;;;;;3.55;0.98;;;8.00;99.90;;;;;;5450543;26;20229;-72
2024/04/20 02:16:35;;;;;;;2.35;0.98;;;8.10;99.90;;;;;;5433962;26;20670;-72
2024/04/20 02:19:01;;;;;;;3.63;1.38;;;8.10;99.90;;;;;;5445401;26;20233;-74
2024/04/20 02:21:27;;;;;;;4.95;1.00;;;8.10;99.90;;;;;;5445236;26;20301;-72
2024/04/20 02:23:54;;;;;;;2.40;0.80;;;8.10;99.90;;;;;;5451651;26;20631;-72
2024/04/20 02:26:20;;;;;;;4.05;1.20;;;8.10;99.90;;;;;;5461008;26;20281;-73
2024/04/20 02:28:46;;;;;;;4.65;1.70;;;8.10;99.90;;;;;;5449992;26;20230;-73
2024/04/20 02:31:12;;;;;;;1.70;0.85;;;8.10;99.90;;;;;;5452025;26;20304;-73
2024/04/20 02:33:40;;;;;;;1.73;0.70;;;8.10;99.90;;;;;;5427527;26;20738;-72
2024/04/20 02:36:07;;;;;;;2.53;0.90;;;8.10;99.90;;;;;;5449758;26;20225;-72
2024/04/20 02:38:33;;;;;;;1.80;1.00;;;8.10;99.90;;;;;;5451670;26;20229;-72
2024/04/20 02:40:59;;;;;;;2.83;1.10;;;8.10;99.90;;;;;;5480553;26;20284;-72
2024/04/20 02:43:26;;;;;;;3.40;1.08;;;8.10;99.90;;;;;;5440879;26;20233;-73
2024/04/20 02:45:52;;;;;;;3.00;1.15;;;8.10;99.90;;;;;;5451140;26;20650;-73
2024/04/20 02:48:18;;;;;;;2.67;1.05;;;8.10;99.90;;;;;;5431946;26;20331;-73
2024/04/20 02:50:44;;;;;;;3.47;1.23;;;8.10;99.90;;;;;;5424315;26;20294;-73
2024/04/20 02:53:10;;;;;;;4.30;0.98;;;8.10;99.90;;;;;;5451552;26;20272;-72
2024/04/20 02:55:36;;;;;;;2.65;1.10;;;8.10;99.90;;;;;;5450443;26;20226;-72
2024/04/20 02:58:02;;;;;;;3.30;1.38;;;8.10;99.90;;;;;;5442467;26;20297;-73
2024/04/20 03:00:28;;;;;;;2.70;1.00;;;8.10;99.90;;;;;;5443989;26;20229;-73
2024/04/20 03:02:55;;;;;;;2.20;0.90;;;8.10;99.90;;;;;;5479059;26;20315;-72
2024/04/20 03:05:21;;;;;;;2.63;1.00;;;8.10;99.90;;;;;;5448617;26;20280;-73
2024/04/20 03:07:47;;;;;;;1.63;0.90;;;8.10;99.90;;;;;;5423035;26;20912;-72
2024/04/20 03:10:13;;;;;;;2.70;0.90;;;8.10;99.90;;;;;;5440692;26;20667;-73
2024/04/20 03:12:39;;;;;;;3.45;0.90;;;8.10;99.90;;;;;;5451100;26;20303;-73
2024/04/20 03:15:06;;;;;;;4.10;1.20;;;8.10;99.90;;;;;;5479122;26;20334;-72
2024/04/20 03:17:32;;;;;;;2.47;0.90;;;8.10;99.90;;;;;;5450706;26;20256;-72
2024/04/20 03:19:58;;;;;;;3.25;0.70;;;8.10;99.90;;;;;;5441452;26;20640;-72
2024/04/20 03:22:24;;;;;;;2.78;1.17;;;8.10;99.90;;;;;;5450861;26;20606;-73
2024/04/20 03:24:50;;;;;;;2.42;0.80;;;8.10;99.90;;;;;;5448551;26;20284;-73
2024/04/20 03:27:16;;;;;;;2.65;0.90;;;8.10;99.90;;;;;;5451016;26;20637;-73
2024/04/20 03:29:42;;;;;;;2.15;0.88;;;8.20;99.90;;;;;;5450713;26;20225;-72
2024/04/20 03:32:08;;;;;;;5.53;1.15;;;8.20;99.90;;;;;;5451068;26;20766;-72
2024/04/20 03:34:35;;;;;;;2.15;0.90;;;8.20;99.90;;;;;;5450277;26;20229;-72
2024/04/20 03:37:03;;;;;;;2.72;0.95;;;8.20;99.90;;;;;;5446803;26;20265;-72
2024/04/20 03:39:29;;;;;;;1.58;0.90;;;8.20;99.90;;;;;;5432705;26;20226;-73
2024/04/20 03:41:55;;;;;;;3.63;0.82;;;8.30;99.90;;;;;;5429421;26;20225;-72
2024/04/20 03:44:22;;;;;;;2.42;0.82;;;8.30;99.90;;;;;;5451231;26;20851;-73
2024/04/20 03:46:48;;;;;;;3.35;0.90;;;8.30;99.90;;;;;;5449556;26;20662;-72
2024/04/20 03:49:14;;;;;;;4.53;1.58;;;8.30;99.90;;;;;;5451512;26;20225;-73
2024/04/20 03:51:40;;;;;;;1.55;0.90;;;8.30;99.90;;;;;;5451600;26;20770;-73
2024/04/20 03:54:06;;;;;;;1.60;0.70;;;8.30;99.90;;;;;;5443996;26;20227;-72
2024/04/20 03:56:32;;;;;;;1.92;0.90;;;8.30;99.90;;;;;;5435401;26;20653;-73
2024/04/20 03:58:58;;;;;;;5.20;1.00;;;8.40;99.90;;;;;;5437356;26;20231;-73
2024/04/20 04:01:24;;;;;;;3.40;0.88;;;8.30;99.90;;;;;;5435975;26;20402;-73
2024/04/20 04:03:50;;;;;;;5.75;1.10;;;8.40;99.90;;;;;;5425107;26;20229;-73
2024/04/20 04:06:16;;;;;;;2.45;0.95;;;8.40;99.90;;;;;;5439139;26;20282;-73
2024/04/20 04:08:42;;;;;;;2.72;0.90;;;8.40;99.90;;;;;;5447471;26;20715;-73
2024/04/20 04:11:08;;;;;;;2.00;0.80;;;8.40;99.90;;;;;;5445816;26;20290;-73
2024/04/20 04:13:35;;;;;;;2.33;0.95;;;8.40;99.90;;;;;;5435624;26;20765;-72
2024/04/20 04:16:01;;;;;;;2.05;1.00;;;8.40;99.90;;;;;;5457928;26;20234;-72
2024/04/20 04:18:27;;;;;;;2.38;0.80;;;8.50;99.90;;;;;;5442334;26;20627;-72
2024/04/20 04:20:53;;;;;;;4.13;0.90;;;8.50;99.90;;;;;;5450061;26;20226;-72
2024/04/20 04:23:19;;;;;;;2.50;0.90;;;8.50;99.90;;;;;;5452827;26;20218;-72
2024/04/20 04:25:45;;;;;;;2.38;1.00;;;8.50;99.90;;;;;;5446913;26;20306;-72
2024/04/20 04:28:11;;;;;;;1.85;0.90;;;8.60;99.90;;;;;;5418646;26;20285;-72
2024/04/20 04:30:37;;;;;;;3.85;1.02;;;8.60;99.90;;;;;;5450143;26;20272;-72
2024/04/20 04:33:03;;;;;;;1.60;0.90;;;8.60;99.90;;;;;;5435432;26;20770;-72
2024/04/20 04:35:30;;;;;;;3.17;1.00;;;8.60;99.90;;;;;;5449663;26;20225;-72
2024/04/20 04:37:56;;;;;;;2.05;1.10;;;8.60;99.90;;;;;;5439366;26;20226;-72
2024/04/20 04:40:23;;;;;;;1.90;1.08;;;8.60;99.90;;;;;;5438719;26;20719;-72
2024/04/20 04:42:49;;;;;;;3.55;1.10;;;8.60;99.90;;;;;;5447899;26;20242;-72
2024/04/20 04:45:15;;;;;;;4.75;0.90;;;8.60;99.90;;;;;;5440383;26;20293;-72
2024/04/20 04:47:41;;;;;;;2.35;0.93;;;8.60;99.90;;;;;;5432421;26;20269;-72
2024/04/20 04:50:07;;;;;;;1.92;1.10;;;8.60;99.90;;;;;;5450002;26;20606;-72
2024/04/20 04:52:33;;;;;;;2.25;1.30;;;8.60;99.90;;;;;;5449409;26;20241;-72
2024/04/20 04:54:59;;;;;;;2.65;1.02;;;8.60;99.90;;;;;;5449255;26;20253;-72
2024/04/20 04:57:25;;;;;;;4.47;1.20;;;8.60;99.90;;;;;;5447917;26;20237;-72
2024/04/20 04:59:52;;;;;;;4.20;1.20;;;8.60;99.90;;;;;;5417713;26;20269;-72
2024/04/20 05:02:18;;;;;;;2.08;0.80;;;8.60;99.90;;;;;;5449542;26;20633;-72
2024/04/20 05:04:44;;;;;;;2.40;0.82;;;8.60;99.90;;;;;;5447231;26;20277;-72
2024/04/20 05:07:10;;;;;;;2.50;1.27;;;8.60;99.90;;;;;;5449583;26;20288;-72
2024/04/20 05:09:38;;;;;;;1.83;0.60;;;8.60;99.90;;;;;;5449225;26;20272;-72
2024/04/20 05:12:05;;;;;;;1.40;0.63;;;8.60;99.90;;;;;;5445765;26;20585;-72
2024/04/20 05:14:32;;;;;;;1.70;0.70;;;8.60;99.90;;;;;;5421123;26;20234;-72
2024/04/20 05:16:58;;;;;;;1.50;0.60;;;8.60;99.90;;;;;;5425120;26;20599;-72
2024/04/20 05:19:24;;;;;;;1.60;0.63;;;8.60;99.90;;;;;;5438015;26;20299;-72
2024/04/20 05:21:50;;;;;;;2.30;0.70;;;8.50;99.90;;;;;;5449091;26;20278;-72
2024/04/20 05:24:17;;;;;;;2.80;0.60;;;8.50;99.90;;;;;;5456578;26;20225;-72
2024/04/20 05:26:43;;;;;;;1.65;0.80;;;8.50;99.90;;;;;;5448485;26;20229;-72
2024/04/20 05:29:09;;;;;;;1.83;0.70;;;8.50;99.90;;;;;;5441384;26;20725;-72
2024/04/20 05:31:35;;;;;;;1.23;0.60;;;8.50;99.90;;;;;;5444126;26;20225;-72
2024/04/20 05:34:01;;;;;;;1.95;0.77;;;8.40;99.90;;;;;;5452305;26;20227;-72
2024/04/20 05:36:27;;;;;;;3.47;0.60;;;8.40;99.90;;;;;;5452499;26;20983;-72
2024/04/20 05:38:53;;;;;;;2.20;0.70;;;8.30;99.90;;;;;;5480748;26;20226;-72
2024/04/20 05:41:19;;;;;;;1.45;0.70;;;8.30;99.90;;;;;;5451984;26;20297;-72
2024/04/20 05:43:46;;;;;;;1.33;0.68;;;8.20;99.90;;;;;;5473102;26;20221;-72
2024/04/20 05:46:12;;;;;;;1.42;0.80;;;8.20;99.90;;;;;;5427429;26;20229;-72
2024/04/20 05:48:38;;;;;;;2.35;0.68;;;8.20;99.90;;;;;;5450376;26;20233;-71
2024/04/20 05:51:04;;;;;;;3.17;0.77;;;8.20;99.90;;;;;;5451636;26;20297;-72
2024/04/20 05:53:30;;;;;;;1.98;0.70;;;8.10;99.90;;;;;;5448077;26;20316;-72
2024/04/20 05:55:56;;;;;;;1.50;0.75;;;8.10;99.90;;;;;;5426083;26;20298;-72
2024/04/20 05:58:22;;;;;;;1.83;0.80;;;8.10;99.90;;;;;;5434418;26;20222;-72
2024/04/20 06:00:48;;;;;;;4.25;0.82;;;8.10;99.90;;;;;;5450369;26;20270;-73
2024/04/20 06:03:14;;;;;;;2.58;1.33;;;8.10;99.90;;;;;;5444293;26;20231;-73
2024/04/20 06:05:42;;;;;;;2.60;0.73;;;8.20;99.90;;;;;;5444303;26;20272;-73
2024/04/20 06:08:09;;;;;;;3.45;0.80;;;8.20;99.90;;;;;;5458781;26;20228;-73
2024/04/20 06:10:35;;;;;;;3.20;0.98;;;8.20;99.90;;;;;;5417354;26;20325;-72
2024/04/20 06:13:02;;;;;;;2.28;0.70;;;8.20;99.90;;;;;;5444370;26;20247;-73
2024/04/20 06:15:28;;;;;;;4.78;1.00;;;8.30;99.90;;;;;;5477670;26;20234;-73
2024/04/20 06:17:54;;;;;;;4.40;1.10;;;8.30;99.90;;;;;;5451728;26;20276;-73
2024/04/20 06:20:21;;;;;;;1.90;1.00;;;8.40;99.90;;;;;;5439866;26;20294;-73
2024/04/20 06:22:48;;;;;;;2.00;1.05;;;8.40;99.90;;;;;;5448400;26;20261;-73
2024/04/20 06:25:14;;;;;;;3.45;1.25;;;8.40;99.90;;;;;;5452022;26;20218;-73
2024/04/20 06:27:40;;;;;;;3.05;1.10;;;8.50;99.90;;;;;;5450302;26;20222;-73
2024/04/20 06:30:08;;;;;;;1.70;0.90;;;8.50;99.90;;;;;;5450307;26;20230;-73
2024/04/20 06:32:34;;;;;;;5.53;1.23;;;8.60;99.90;;;;;;5443770;26;20225;-73
2024/04/20 06:35:00;;;;;;;3.35;0.95;;;8.60;99.90;;;;;;5453941;26;21215;-72
2024/04/20 06:37:27;;;;;;;2.67;1.17;;;8.60;99.90;;;;;;5451994;26;20258;-72
2024/04/20 06:39:53;;;;;;;2.55;1.02;;;8.60;99.90;;;;;;5463510;26;20238;-73
2024/04/20 06:42:19;;;;;;;5.22;1.15;;;8.60;99.90;;;;;;5451683;26;20221;-73
2024/04/20 06:44:52;;;;;;;1.80;0.90;;;8.70;99.90;;;;;;5451080;26;20875;-73
2024/04/20 06:47:18;;;;;;;2.60;0.80;;;8.70;99.90;;;;;;5451429;26;20230;-73
2024/04/20 06:49:44;;;;;;;4.57;1.50;;;8.80;99.90;;;;;;5443460;26;20242;-73
2024/04/20 06:52:12;;;;;;;3.15;0.90;;;8.70;99.90;;;;;;5449742;26;20233;-72
2024/04/20 06:54:38;;;;;;;3.72;1.00;;;8.80;99.90;;;;;;5451000;26;20342;-72
2024/04/20 06:57:04;;;;;;;2.20;0.80;;;8.80;99.90;;;;;;5420041;26;20707;-73
2024/04/20 06:59:31;;;;;;;1.50;0.80;;;8.80;99.90;;;;;;5462673;26;20288;-73
2024/04/20 07:01:57;;;;;;;2.45;1.15;;;8.80;99.90;;;;;;5451005;26;20736;-73
2024/04/20 07:04:23;;;;;;;2.97;1.42;;;8.90;99.90;;;;;;5464820;26;20276;-73
2024/04/20 07:06:49;;;;;;;2.47;0.80;;;8.90;99.90;;;;;;5449012;26;20260;-73
2024/04/20 07:09:15;;;;;;;4.63;0.90;;;8.90;99.90;;;;;;5419635;26;20233;-73
2024/04/20 07:11:41;;;;;;;3.08;1.20;;;8.90;99.90;;;;;;5451012;26;20225;-73
2024/04/20 07:14:08;;;;;;;2.67;0.70;;;8.90;99.90;;;;;;5450820;26;20230;-72
2024/04/20 07:16:34;;;;;;;2.92;1.10;;;8.90;99.90;;;;;;5451779;26;20260;-72
2024/04/20 07:19:00;;;;;;;3.03;1.02;;;8.90;99.90;;;;;;5435299;26;20294;-74
2024/04/20 07:21:27;;;;;;;1.58;0.80;;;8.90;99.90;;;;;;5420918;26;20230;-72
2024/04/20 07:23:53;;;;;;;3.92;1.05;;;9.00;99.90;;;;;;5435848;26;20235;-72
2024/04/20 07:26:19;;;;;;;2.30;0.90;;;9.00;99.90;;;;;;5437832;26;20222;-73
2024/04/20 07:28:45;;;;;;;2.60;0.80;;;9.00;99.90;;;;;;5449453;26;20265;-72
2024/04/20 07:31:11;;;;;;;3.53;0.80;;;9.00;99.90;;;;;;5451285;26;20233;-72
2024/04/20 07:33:37;;;;;;;4.80;0.80;;;9.10;99.90;;;;;;5449561;26;20634;-72
2024/04/20 07:36:04;;;;;;;4.07;0.90;;;9.10;99.90;;;;;;5448435;26;20225;-72
2024/04/20 07:38:31;;;;;;;1.92;0.95;;;9.10;99.90;;;;;;5449086;26;20229;-72
2024/04/20 07:40:57;;;;;;;5.75;0.80;;;9.20;99.90;;;;;;5450161;26;20289;-72
2024/04/20 07:43:23;;;;;;;2.92;0.90;;;9.20;99.90;;;;;;5479489;26;20752;-73
2024/04/20 07:45:49;;;;;;;3.85;0.80;;;9.20;99.90;;;;;;5427509;26;20269;-72
2024/04/20 07:48:15;;;;;;;2.90;0.70;;;9.30;99.90;;;;;;5451104;26;20268;-72
2024/04/20 07:50:42;;;;;;;1.90;0.80;;;9.30;99.90;;;;;;5451051;26;20229;-72
2024/04/20 07:53:08;;;;;;;2.13;0.60;;;9.30;99.90;;;;;;5432388;26;20269;-72
2024/04/20 07:55:34;;;;;;;2.05;0.70;;;9.30;99.90;;;;;;5476782;26;20615;-72
2024/04/20 07:58:00;;;;;;;6.45;1.10;;;9.30;99.90;;;;;;5474236;26;20225;-72
2024/04/20 08:00:26;;;;;;;4.05;1.38;;;9.30;99.90;;;;;;5469109;26;20775;-72
2024/04/20 08:02:52;;;;;;;1.95;0.90;;;9.30;99.90;;;;;;5478771;26;20252;-73
2024/04/20 08:05:18;;;;;;;2.60;0.75;;;9.30;99.90;;;;;;5478990;26;20241;-72
2024/04/20 08:07:44;;;;;;;3.58;1.10;;;9.40;99.90;;;;;;5450282;26;20233;-73
2024/04/20 08:10:10;;;;;;;2.75;1.02;;;9.40;99.90;;;;;;5399735;26;20763;-73
2024/04/20 08:12:37;;;;;;;3.20;0.80;;;9.40;99.90;;;;;;5440116;26;20256;-73
2024/04/20 08:15:03;;;;;;;3.05;0.98;;;9.40;99.90;;;;;;5449518;26;20272;-73
2024/04/20 08:17:29;;;;;;;2.45;0.80;;;9.40;99.90;;;;;;5454054;26;20230;-72
2024/04/20 08:19:55;;;;;;;2.92;0.88;;;9.50;99.90;;;;;;5461404;26;20270;-73
2024/04/20 08:22:21;;;;;;;3.35;0.80;;;9.50;99.90;;;;;;5448777;26;20222;-73
2024/04/20 08:24:47;;;;;;;2.50;0.90;;;9.50;99.90;;;;;;5449004;26;20282;-73
2024/04/20 08:27:17;;;;;;;4.22;0.93;;;9.50;99.90;;;;;;5450323;26;20856;-72
2024/04/20 08:29:43;;;;;;;4.13;1.13;;;9.50;99.90;;;;;;5433526;26;20596;-72
2024/04/20 08:32:09;;;;;;;4.18;0.70;;;9.50;99.90;;;;;;5434779;26;20252;-72
2024/04/20 08:34:35;;;;;;;4.55;0.80;;;9.50;99.90;;;;;;5434112;26;20265;-73
2024/04/20 08:37:01;;;;;;;2.97;1.00;;;9.50;99.90;;;;;;5444715;26;20363;-72
2024/04/20 08:39:28;;;;;;;4.93;1.30;;;9.50;99.90;;;;;;5478131;26;20222;-72
2024/04/20 08:42:04;;;;;;;2.15;1.20;;;9.50;99.90;;;;;;5432182;26;20238;-72
2024/04/20 08:44:30;;;;;;;5.75;1.73;;;9.60;99.90;;;;;;5449264;26;20289;-72
2024/04/20 08:46:57;;;;;;;2.40;0.90;;;9.60;99.90;;;;;;5446980;26;20276;-73
2024/04/20 08:49:27;;;;;;;5.63;0.90;;;9.60;99.90;;;;;;5446978;26;20230;-72
2024/04/20 08:51:54;;;;;;;2.38;1.20;;;9.60;99.90;;;;;;5434167;26;20221;-72
2024/04/20 08:54:22;;;;;;;4.10;0.80;;;9.60;99.90;;;;;;5414557;26;20272;-73
2024/04/20 08:56:49;;;;;;;3.03;0.77;;;9.60;99.90;;;;;;5445850;26;20222;-72
2024/04/20 08:59:15;;;;;;;5.13;1.00;;;9.60;99.90;;;;;;5445239;26;20221;-72
2024/04/20 09:01:41;;;;;;;3.33;0.77;;;9.70;99.90;;;;;;5446494;26;20326;-72
2024/04/20 09:04:08;;;;;;;2.00;0.70;;;9.70;99.90;;;;;;5438740;26;20282;-72
2024/04/20 09:06:35;;;;;;;2.45;0.80;;;9.80;99.90;;;;;;5446418;26;20860;-72
2024/04/20 09:09:03;;;;;;;7.20;0.80;;;9.90;99.90;;;;;;5472013;26;20230;-72
2024/04/20 09:11:31;;;;;;;2.90;0.90;;;10.00;99.90;;;;;;5457586;26;20263;-72
2024/04/20 09:13:58;;;;;;;2.75;0.80;;;10.20;99.90;;;;;;5445275;26;20292;-73
2024/04/20 09:16:24;;;;;;;4.75;1.20;;;10.40;99.90;;;;;;5449737;26;20630;-72
2024/04/20 09:18:50;;;;;;;1.75;0.80;;;10.60;99.90;;;;;;5447787;26;20282;-73
2024/04/20 09:21:16;;;;;;;2.35;0.75;;;10.90;99.90;;;;;;5442014;26;20283;-72
2024/04/20 09:23:43;;;;;;;2.30;0.60;;;11.20;99.90;;;;;;5449439;26;20233;-72
2024/04/20 09:26:11;;;;;;;2.35;0.80;;;11.30;99.90;;;;;;5456670;26;20246;-72
2024/04/20 09:28:38;;;;;;;2.92;0.88;;;11.40;99.90;;;;;;5450465;26;20221;-72
2024/04/20 09:31:04;;;;;;;5.70;0.90;;;11.40;99.90;;;;;;5444240;26;20264;-72
2024/04/20 09:33:30;;;;;;;2.85;0.95;;;11.40;99.90;;;;;;5448601;26;20293;-72
2024/04/20 09:35:56;;;;;;;1.60;0.70;;;11.30;99.90;;;;;;5434943;26;20282;-72
2024/04/20 09:38:23;;;;;;;2.95;0.70;;;11.30;99.90;;;;;;5441809;26;20654;-73
2024/04/20 09:40:52;;;;;;;4.60;1.10;;;11.30;99.90;;;;;;5442531;26;20755;-73
2024/04/20 09:43:22;;;;;;;2.03;0.60;;;11.20;99.90;;;;;;5450163;26;20745;-73
2024/04/20 09:45:51;;;;;;;3.58;0.80;;;11.20;99.90;;;;;;5449428;26;20226;-73
2024/04/20 09:48:24;;;;;;;3.25;0.90;;;11.30;99.90;;;;;;5428590;26;20333;-72
2024/04/20 09:50:57;;;;;;;2.40;1.20;;;11.30;99.90;;;;;;5449852;26;20329;-73
2024/04/20 09:53:36;;;;;;;1.85;0.80;;;11.30;99.90;;;;;;5447960;26;20237;-73
2024/04/20 09:56:03;;;;;;;2.85;0.77;;;11.40;99.90;;;;;;5459842;26;20284;-72
2024/04/20 09:58:33;;;;;;;3.55;0.77;;;11.50;99.90;;;;;;5451501;26;20218;-72
2024/04/20 10:01:00;;;;;;;3.28;1.00;;;11.60;99.90;;;;;;5445806;26;20276;-72
2024/04/20 10:03:28;;;;;;;2.78;0.75;;;11.90;99.90;;;;;;5446945;26;20571;-73
2024/04/20 10:05:56;;;;;;;2.30;0.90;;;12.10;99.90;;;;;;5447962;26;20252;-72
2024/04/20 10:08:23;;;;;;;2.60;0.90;;;12.60;99.90;;;;;;5437889;26;20258;-72
2024/04/20 10:10:50;;;;;;;3.13;1.40;;;13.30;99.90;;;;;;5435108;26;20617;-73
2024/04/20 10:13:16;;;;;;;4.27;1.00;;;13.90;99.90;;;;;;5448317;26;21354;-73
2024/04/20 10:15:47;;;;;;;2.23;0.90;;;14.40;99.90;;;;;;5447872;26;20559;-73
2024/04/20 10:18:13;;;;;;;2.97;1.43;;;14.70;99.90;;;;;;5437767;26;20919;-73
2024/04/20 10:20:43;;;;;;;5.07;1.37;;;14.80;99.90;;;;;;5450344;26;20547;-73
2024/04/20 10:23:17;;;;;;;4.53;1.50;;;15.00;99.90;;;;;;5452060;26;20531;-73
2024/04/20 10:25:47;;;;;;;3.70;1.10;;;15.10;99.90;;;;;;5443734;26;20638;-72
2024/04/20 10:28:27;;;;;;;2.37;0.90;;;15.10;99.90;;;;;;5451759;26;20606;-73
2024/04/20 10:30:58;;;;;;;4.70;1.20;;;14.90;99.90;;;;;;5450254;26;20519;-73
2024/04/20 10:33:32;;;;;;;5.00;1.10;;;14.80;99.90;;;;;;5451014;26;20555;-73
2024/04/20 10:36:06;;;;;;;3.07;0.90;;;14.60;99.90;;;;;;5448897;26;20570;-73
2024/04/20 10:38:33;;;;;;;4.33;1.03;;;14.40;99.90;;;;;;5427245;26;20543;-73
2024/04/20 10:41:21;;;;;;;4.57;0.90;;;14.30;99.90;;;;;;5438724;26;20528;-72
2024/04/20 10:43:48;;;;;;;3.43;0.87;;;14.20;99.90;;;;;;5442926;26;20575;-73
2024/04/20 10:46:18;;;;;;;2.77;0.90;;;14.10;99.90;;;;;;5451420;26;20634;-73
2024/04/20 10:48:52;;;;;;;4.80;0.90;;;14.00;99.90;;;;;;5451587;26;21104;-73
2024/04/20 10:51:20;;;;;;;2.43;0.90;;;13.90;99.90;;;;;;5451510;26;20598;-73
2024/04/20 10:53:46;;;;;;;3.53;0.80;;;13.70;99.90;;;;;;5449807;26;21164;-72
2024/04/20 10:56:14;;;;;;;5.43;0.90;;;13.70;99.90;;;;;;5450875;26;20627;-73
2024/04/20 10:58:43;;;;;;;3.07;0.80;;;13.90;99.90;;;;;;5450982;26;20252;-73
2024/04/20 11:01:10;;;;;;;2.27;0.63;;;14.20;99.90;;;;;;5447603;26;20612;-73
2024/04/20 11:03:36;;;;;;;1.50;0.60;;;14.40;99.90;;;;;;5451683;26;20527;-73
2024/04/20 11:06:02;;;;;;;2.10;0.70;;;14.50;99.90;;;;;;5432261;26;21191;-72
2024/04/20 11:08:30;;;;;;;2.57;0.63;;;14.50;99.90;;;;;;5455898;26;20605;-73
2024/04/20 11:11:02;;;;;;;2.63;0.60;;;14.40;99.90;;;;;;5431196;26;20612;-72
2024/04/20 11:13:29;;;;;;;1.77;0.60;;;14.50;99.90;;;;;;5451040;26;20524;-73
2024/04/20 11:15:56;;;;;;;1.90;0.60;;;14.70;99.90;;;;;;5448709;26;20564;-73
2024/04/20 11:18:22;;;;;;;1.40;0.60;;;15.10;99.90;;;;;;5448015;26;20617;-72
2024/04/20 11:20:48;;;;;;;2.10;0.90;;;15.60;99.90;;;;;;5451605;26;20588;-73
2024/04/20 11:23:17;;;;;;;1.57;0.50;;;16.20;99.90;;;;;;5451097;26;20524;-73
2024/04/20 11:25:54;;;;;;;2.33;0.63;;;16.80;99.90;;;;;;5450571;26;20635;-72
2024/04/20 11:28:25;;;;;;;2.97;0.60;;;17.40;99.90;;;;;;5448891;26;20559;-72
2024/04/20 11:30:52;;;;;;;3.00;0.90;;;18.00;99.90;;;;;;5450408;26;20515;-72
2024/04/20 11:33:18;;;;;;;2.40;1.00;;;18.50;99.90;;;;;;5450574;26;20556;-72
2024/04/20 11:35:48;;;;;;;2.07;0.70;;;18.90;99.90;;;;;;5450527;26;20607;-72
2024/04/20 11:38:15;;;;;;;2.10;0.53;;;19.30;99.90;;;;;;5450738;26;20576;-72
2024/04/20 11:40:52;;;;;;;2.77;0.60;;;19.60;99.90;;;;;;5451094;26;20948;-72
2024/04/20 11:43:25;;;;;;;2.03;0.77;;;20.00;99.90;;;;;;5450397;26;20523;-72
2024/04/20 11:45:53;;;;;;;3.03;0.80;;;20.30;99.90;;;;;;5449874;26;20640;-72
2024/04/20 11:48:30;;;;;;;3.20;1.00;;;20.50;99.90;;;;;;5450351;26;20539;-72
2024/04/20 11:54:17;;;;;;;2.77;0.70;;;20.80;99.90;;;;;;5450579;26;20523;-72
2024/04/20 11:56:44;;;;;;;2.37;0.57;;;20.70;99.90;;;;;;5430849;26;20619;-71
2024/04/20 11:59:16;;;;;;;1.80;0.50;;;20.20;99.90;;;;;;5464196;26;20542;-72
2024/04/20 12:01:43;;;;;;;2.27;0.50;;;19.40;99.90;;;;;;5450586;26;21057;-71
2024/04/20 12:04:11;;;;;;;3.10;0.60;;;18.60;99.90;;;;;;5449830;26;20524;-72
2024/04/20 12:06:41;;;;;;;1.73;0.70;;;17.80;99.90;;;;;;5451400;26;20576;-71
2024/04/20 12:09:07;;;;;;;2.53;0.67;;;16.90;99.90;;;;;;5451457;26;20872;-71
2024/04/20 12:11:33;;;;;;;4.27;0.90;;;16.00;99.90;;;;;;5449033;26;20528;-72
2024/04/20 12:14:03;;;;;;;2.03;0.57;;;15.30;99.90;;;;;;5449797;26;20536;-72
2024/04/20 12:16:30;;;;;;;2.80;0.57;;;14.70;99.90;;;;;;5478913;26;20899;-71
2024/04/20 12:18:56;;;;;;;2.20;0.80;;;14.10;99.90;;;;;;5448049;26;20607;-71
2024/04/20 12:21:22;;;;;;;1.65;0.55;;;13.70;99.90;;;;;;5449886;26;20640;-72
2024/04/20 12:23:48;;;;;;;1.30;0.50;;;13.50;99.90;;;;;;5435559;26;20265;-72
2024/04/20 12:26:14;;;;;;;3.53;0.70;;;13.30;99.90;;;;;;5447353;26;20563;-71
2024/04/20 12:28:40;;;;;;;2.57;0.60;;;13.30;99.90;;;;;;5458135;26;20602;-71
2024/04/20 12:31:06;;;;;;;3.10;0.70;;;13.50;99.90;;;;;;5448166;26;20612;-71
2024/04/20 12:33:32;;;;;;;2.70;0.70;;;13.60;99.90;;;;;;5443350;26;20869;-71
2024/04/20 12:35:59;;;;;;;2.13;0.80;;;13.80;99.90;;;;;;5430246;26;20572;-71
2024/04/20 12:38:28;;;;;;;3.33;0.80;;;14.00;99.90;;;;;;5449408;26;20588;-71
2024/04/20 12:40:55;;;;;;;3.53;1.27;;;14.30;99.90;;;;;;5477950;26;20520;-71
2024/04/20 12:43:21;;;;;;;3.30;1.30;;;14.40;99.90;;;;;;5474926;26;20669;-71
2024/04/20 12:45:47;;;;;;;3.00;0.80;;;14.50;99.90;;;;;;5446800;26;21250;-71
2024/04/20 12:48:14;;;;;;;6.03;2.77;;;14.50;99.90;;;;;;5473079;26;20975;-71
2024/04/20 12:50:40;;;;;;;3.40;1.10;;;14.50;99.90;;;;;;5438937;26;20531;-71
2024/04/20 12:53:06;;;;;;;5.13;1.50;;;14.40;99.90;;;;;;5447272;26;20596;-71
2024/04/20 12:55:32;;;;;;;3.03;0.80;;;14.20;99.90;;;;;;5427376;26;20675;-72